Morning Lady — 3FKC3 — position and weather

sailwx.info

Track history (hours):
 
Tides and Currents Weather Stations Pressure Air Temp Water Temp Dewpoint Dewpoint Depression Visibility Wind Speed Wind Dir Waves Ship Positions

Morning Lady

Last reported at 2018-Apr-17 02:20 UTC. Time now 2018-Apr-20 01:17 UTC.
Position N 06°58' W 016°05'.

Length 234 m; draft 9.5 m.

Type: Cargo ship. MMSI: 356473000.

Date/timePositionNaut miles runAvg speedWind from/ knotsBaromVisibWave heightAir tempDewpointWater temp
2018-Apr-17 02:20N 06°58' W 016°05'1917.4
2018-Apr-17 01:15N 07°14' W 016°14'417.5
2018-Apr-17 01:01N 07°18' W 016°16'1417.4
2018-Apr-17 00:11N 07°30' W 016°23'317.6
2018-Apr-17 00:00N 07°33' W 016°25'3217.4
2018-Apr-16 22:10N 08°01' W 016°41'317.2
2018-Apr-16 22:00N 08°03' W 016°42'1017.1
2018-Apr-16 21:27N 08°11' W 016°47'717.0
2018-Apr-16 21:00N 08°18' W 016°51'916.9
2018-Apr-16 20:30N 08°25' W 016°56'817.2
2018-Apr-16 20:00N 08°33' W 016°60'1417.1
2018-Apr-16 19:13N 08°44' W 017°07'417.4
2018-Apr-16 18:59N 08°48' W 017°08'1017.2
2018-Apr-16 18:24N 08°57' W 017°14'717.2
2018-Apr-16 18:01N 09°02' W 017°17'917.3
2018-Apr-16 17:30N 09°10' W 017°21'917.0
2018-Apr-16 17:00N 09°17' W 017°26'917.0
2018-Apr-16 16:28N 09°25' W 017°30'1817.5
2018-Apr-16 15:28N 09°40' W 017°40'817.3
2018-Apr-16 15:00N 09°47' W 017°44'1717.1
2018-Apr-16 14:00N 10°02' W 017°52'  
2018-Apr-13 17:52N 28°08' W 016°13'718.1
2018-Apr-13 17:30N 28°13' W 016°08'918.2
2018-Apr-13 17:01N 28°20' W 016°02'918.0
2018-Apr-13 16:30N 28°27' W 015°55'917.7
2018-Apr-13 16:00N 28°34' W 015°49'917.2
2018-Apr-13 15:30N 28°41' W 015°44'917.3
2018-Apr-13 15:00N 28°49' W 015°41'  
2018-Apr-10 16:53N 43°55' W 005°41'715.6
2018-Apr-10 16:28N 43°53' W 005°32'251 8.2
2018-Apr-09 09:48N 48°03' W 005°42'13615.7
2018-Apr-09 01:10N 49°45' W 003°26'317.8
2018-Apr-09 01:00N 49°47' W 003°22'917.7
2018-Apr-09 00:30N 49°51' W 003°10'917.6
2018-Apr-09 00:00N 49°56' W 002°58'917.4
2018-Apr-08 23:30N 49°60' W 002°46'917.7
2018-Apr-08 23:00N 50°03' W 002°34'2418.1
2018-Apr-08 21:42N 50°15' W 002°01'418.4
2018-Apr-08 21:29N 50°16' W 001°56'918.7
2018-Apr-08 21:00N 50°19' W 001°43'1419.1
2018-Apr-08 20:15N 50°26' W 001°23'519.5
2018-Apr-08 20:00N 50°28' W 001°16'1019.5
2018-Apr-08 19:31N 50°33' W 001°03'816.8
2018-Apr-08 19:01N 50°41' W 000°58'510.9
2018-Apr-08 18:31N 50°44' W 001°05'815.2
2018-Apr-08 18:01N 50°46' W 001°17'5 9.7
2018-Apr-08 17:30N 50°51' W 001°20'3 6.2
2018-Apr-08 16:59N 50°53' W 001°24'0 0.0
2018-Apr-08 16:29N 50°53' W 001°24'0 0.0
2018-Apr-08 15:59N 50°53' W 001°24'0 0.0
2018-Apr-08 15:29N 50°53' W 001°24'0 0.0
2018-Apr-08 14:59N 50°53' W 001°24'0 0.0
2018-Apr-08 14:29N 50°53' W 001°24'0 0.0
2018-Apr-08 13:59N 50°53' W 001°24'0 0.0
2018-Apr-08 13:29N 50°53' W 001°24'0 0.0
2018-Apr-08 12:59N 50°53' W 001°24'0 0.0
2018-Apr-08 12:29N 50°53' W 001°24'0 0.0
2018-Apr-08 11:59N 50°53' W 001°24'0 0.0
2018-Apr-08 11:29N 50°53' W 001°24'0 0.0
2018-Apr-08 10:59N 50°53' W 001°24'0 0.0
2018-Apr-08 10:29N 50°53' W 001°24'0 0.0
2018-Apr-08 09:59N 50°53' W 001°24'0 0.0
2018-Apr-08 09:29N 50°53' W 001°24'0 0.0
2018-Apr-08 08:59N 50°53' W 001°24'0 0.0
2018-Apr-08 08:29N 50°53' W 001°24'0 0.0
2018-Apr-08 07:59N 50°53' W 001°24'0 0.0
2018-Apr-08 07:29N 50°53' W 001°24'0 0.0
2018-Apr-08 06:59N 50°53' W 001°24'0 0.0
2018-Apr-08 06:29N 50°53' W 001°24'0 0.0
2018-Apr-08 05:59N 50°53' W 001°24'0 0.0
2018-Apr-08 05:29N 50°53' W 001°24'0 0.0
2018-Apr-08 04:59N 50°53' W 001°24'0 0.0
2018-Apr-08 04:29N 50°53' W 001°24'0 0.0
2018-Apr-08 03:59N 50°53' W 001°24'0 0.0
2018-Apr-08 03:29N 50°53' W 001°24'0 0.0
2018-Apr-08 02:59N 50°53' W 001°24'0 0.0
2018-Apr-08 02:29N 50°53' W 001°24'0 0.0
2018-Apr-08 01:59N 50°53' W 001°24'0 0.0
2018-Apr-08 01:29N 50°53' W 001°24'0 0.0
2018-Apr-08 00:59N 50°53' W 001°24'0 0.0
2018-Apr-08 00:29N 50°53' W 001°24'0 0.0
2018-Apr-07 23:59N 50°53' W 001°24'0 0.0
2018-Apr-07 23:29N 50°53' W 001°24'0 0.0
2018-Apr-07 22:59N 50°53' W 001°24'0 0.0
2018-Apr-07 22:29N 50°53' W 001°24'0 0.0
2018-Apr-07 21:59N 50°53' W 001°24'0 0.0
2018-Apr-07 21:29N 50°53' W 001°24'0 0.0
2018-Apr-07 20:59N 50°53' W 001°24'0 0.0
2018-Apr-07 20:29N 50°53' W 001°24'0 0.0
2018-Apr-07 19:59N 50°53' W 001°24'0 0.0
2018-Apr-07 19:29N 50°53' W 001°24'0 0.0
2018-Apr-07 18:59N 50°53' W 001°24'0 0.0
2018-Apr-07 18:29N 50°53' W 001°24'1 2.4
2018-Apr-07 18:00N 50°52' W 001°23'510.5
2018-Apr-07 17:31N 50°48' W 001°18'713.7
2018-Apr-07 17:00N 50°46' W 001°08'816.5
2018-Apr-07 16:31N 50°41' W 000°57'4 7.1
2018-Apr-07 16:01N 50°38' W 000°54'4 8.2
2018-Apr-07 15:30N 50°34' W 000°52'611.7
2018-Apr-07 15:00N 50°36' W 000°43'611.2
2018-Apr-07 14:30N 50°34' W 000°35'1 1.8
2018-Apr-07 14:00N 50°33' W 000°35'1 2.0
2018-Apr-07 13:30N 50°33' W 000°36'1 2.1
2018-Apr-07 13:00N 50°32' W 000°38'1 2.2
2018-Apr-07 12:30N 50°31' W 000°39'1 1.0
2018-Apr-07 11:55N 50°31' W 000°38'512.7
2018-Apr-07 11:30N 50°33' W 000°30'713.9
2018-Apr-07 11:00N 50°33' W 000°20'714.6
2018-Apr-07 10:30N 50°33' W 000°08'815.5
2018-Apr-07 10:00N 50°33' E 000°04'816.1
2018-Apr-07 09:30N 50°35' E 000°16'816.6
2018-Apr-07 09:00N 50°37' E 000°29'816.6
2018-Apr-07 08:30N 50°41' E 000°41'816.6
2018-Apr-07 08:00N 50°45' E 000°52'816.1
2018-Apr-07 07:30N 50°50' E 001°03'815.8
2018-Apr-07 07:00N 50°55' E 001°12'815.4
2018-Apr-07 06:30N 51°01' E 001°21'714.7
2018-Apr-07 06:00N 51°05' E 001°30'713.7
2018-Apr-07 05:30N 51°09' E 001°39'713.7
2018-Apr-07 05:00N 51°14' E 001°47'713.7
2018-Apr-07 04:30N 51°19' E 001°53'714.1
2018-Apr-07 04:00N 51°25' E 001°60'815.2
2018-Apr-07 03:30N 51°21' E 002°10'815.0
2018-Apr-07 03:00N 51°22' E 002°22'815.4
2018-Apr-07 02:30N 51°23' E 002°35'  
Track history (hours):
 
Tides and Currents Weather Stations Pressure Air Temp Water Temp Dewpoint Dewpoint Depression Visibility Wind Speed Wind Dir Waves Ship Positions

Morning Lady

Last reported at 2018-Apr-17 02:20 UTC. Time now 2018-Apr-20 01:17 UTC.
Position N 06°58' W 016°05'.

Length 234 m; draft 9.5 m.

Type: Cargo ship. MMSI: 356473000.

Date/timePositionNaut miles runAvg speedWind from/ knotsBaromVisibWave heightAir tempDewpointWater temp
2018-Apr-17 02:20N 06°58' W 016°05'1917.4
2018-Apr-17 01:15N 07°14' W 016°14'417.5
2018-Apr-17 01:01N 07°18' W 016°16'1417.4
2018-Apr-17 00:11N 07°30' W 016°23'317.6
2018-Apr-17 00:00N 07°33' W 016°25'3217.4
2018-Apr-16 22:10N 08°01' W 016°41'317.2
2018-Apr-16 22:00N 08°03' W 016°42'1017.1
2018-Apr-16 21:27N 08°11' W 016°47'717.0
2018-Apr-16 21:00N 08°18' W 016°51'916.9
2018-Apr-16 20:30N 08°25' W 016°56'817.2
2018-Apr-16 20:00N 08°33' W 016°60'1417.1
2018-Apr-16 19:13N 08°44' W 017°07'417.4
2018-Apr-16 18:59N 08°48' W 017°08'1017.2
2018-Apr-16 18:24N 08°57' W 017°14'717.2
2018-Apr-16 18:01N 09°02' W 017°17'917.3
2018-Apr-16 17:30N 09°10' W 017°21'917.0
2018-Apr-16 17:00N 09°17' W 017°26'917.0
2018-Apr-16 16:28N 09°25' W 017°30'1817.5
2018-Apr-16 15:28N 09°40' W 017°40'817.3
2018-Apr-16 15:00N 09°47' W 017°44'1717.1
2018-Apr-16 14:00N 10°02' W 017°52'  
2018-Apr-13 17:52N 28°08' W 016°13'718.1
2018-Apr-13 17:30N 28°13' W 016°08'918.2
2018-Apr-13 17:01N 28°20' W 016°02'918.0
2018-Apr-13 16:30N 28°27' W 015°55'917.7
2018-Apr-13 16:00N 28°34' W 015°49'917.2
2018-Apr-13 15:30N 28°41' W 015°44'917.3
2018-Apr-13 15:00N 28°49' W 015°41'  
2018-Apr-10 16:53N 43°55' W 005°41'715.6
2018-Apr-10 16:28N 43°53' W 005°32'251 8.2
2018-Apr-09 09:48N 48°03' W 005°42'13615.7
2018-Apr-09 01:10N 49°45' W 003°26'317.8
2018-Apr-09 01:00N 49°47' W 003°22'917.7
2018-Apr-09 00:30N 49°51' W 003°10'917.6
2018-Apr-09 00:00N 49°56' W 002°58'917.4
2018-Apr-08 23:30N 49°60' W 002°46'917.7
2018-Apr-08 23:00N 50°03' W 002°34'2418.1
2018-Apr-08 21:42N 50°15' W 002°01'418.4
2018-Apr-08 21:29N 50°16' W 001°56'918.7
2018-Apr-08 21:00N 50°19' W 001°43'1419.1
2018-Apr-08 20:15N 50°26' W 001°23'519.5
2018-Apr-08 20:00N 50°28' W 001°16'1019.5
2018-Apr-08 19:31N 50°33' W 001°03'816.8
2018-Apr-08 19:01N 50°41' W 000°58'510.9
2018-Apr-08 18:31N 50°44' W 001°05'815.2
2018-Apr-08 18:01N 50°46' W 001°17'5 9.7
2018-Apr-08 17:30N 50°51' W 001°20'3 6.2
2018-Apr-08 16:59N 50°53' W 001°24'0 0.0
2018-Apr-08 16:29N 50°53' W 001°24'0 0.0
2018-Apr-08 15:59N 50°53' W 001°24'0 0.0
2018-Apr-08 15:29N 50°53' W 001°24'0 0.0
2018-Apr-08 14:59N 50°53' W 001°24'0 0.0
2018-Apr-08 14:29N 50°53' W 001°24'0 0.0
2018-Apr-08 13:59N 50°53' W 001°24'0 0.0
2018-Apr-08 13:29N 50°53' W 001°24'0 0.0
2018-Apr-08 12:59N 50°53' W 001°24'0 0.0
2018-Apr-08 12:29N 50°53' W 001°24'0 0.0
2018-Apr-08 11:59N 50°53' W 001°24'0 0.0
2018-Apr-08 11:29N 50°53' W 001°24'0 0.0
2018-Apr-08 10:59N 50°53' W 001°24'0 0.0
2018-Apr-08 10:29N 50°53' W 001°24'0 0.0
2018-Apr-08 09:59N 50°53' W 001°24'0 0.0
2018-Apr-08 09:29N 50°53' W 001°24'0 0.0
2018-Apr-08 08:59N 50°53' W 001°24'0 0.0
2018-Apr-08 08:29N 50°53' W 001°24'0 0.0
2018-Apr-08 07:59N 50°53' W 001°24'0 0.0
2018-Apr-08 07:29N 50°53' W 001°24'0 0.0
2018-Apr-08 06:59N 50°53' W 001°24'0 0.0
2018-Apr-08 06:29N 50°53' W 001°24'0 0.0
2018-Apr-08 05:59N 50°53' W 001°24'0 0.0
2018-Apr-08 05:29N 50°53' W 001°24'0 0.0
2018-Apr-08 04:59N 50°53' W 001°24'0 0.0
2018-Apr-08 04:29N 50°53' W 001°24'0 0.0
2018-Apr-08 03:59N 50°53' W 001°24'0 0.0
2018-Apr-08 03:29N 50°53' W 001°24'0 0.0
2018-Apr-08 02:59N 50°53' W 001°24'0 0.0
2018-Apr-08 02:29N 50°53' W 001°24'0 0.0
2018-Apr-08 01:59N 50°53' W 001°24'0 0.0
2018-Apr-08 01:29N 50°53' W 001°24'0 0.0
2018-Apr-08 00:59N 50°53' W 001°24'0 0.0
2018-Apr-08 00:29N 50°53' W 001°24'0 0.0
2018-Apr-07 23:59N 50°53' W 001°24'0 0.0
2018-Apr-07 23:29N 50°53' W 001°24'0 0.0
2018-Apr-07 22:59N 50°53' W 001°24'0 0.0
2018-Apr-07 22:29N 50°53' W 001°24'0 0.0
2018-Apr-07 21:59N 50°53' W 001°24'0 0.0
2018-Apr-07 21:29N 50°53' W 001°24'0 0.0
2018-Apr-07 20:59N 50°53' W 001°24'0 0.0
2018-Apr-07 20:29N 50°53' W 001°24'0 0.0
2018-Apr-07 19:59N 50°53' W 001°24'0 0.0
2018-Apr-07 19:29N 50°53' W 001°24'0 0.0
2018-Apr-07 18:59N 50°53' W 001°24'0 0.0
2018-Apr-07 18:29N 50°53' W 001°24'1 2.4
2018-Apr-07 18:00N 50°52' W 001°23'510.5
2018-Apr-07 17:31N 50°48' W 001°18'713.7
2018-Apr-07 17:00N 50°46' W 001°08'816.5
2018-Apr-07 16:31N 50°41' W 000°57'4 7.1
2018-Apr-07 16:01N 50°38' W 000°54'4 8.2
2018-Apr-07 15:30N 50°34' W 000°52'611.7
2018-Apr-07 15:00N 50°36' W 000°43'611.2
2018-Apr-07 14:30N 50°34' W 000°35'1 1.8
2018-Apr-07 14:00N 50°33' W 000°35'1 2.0
2018-Apr-07 13:30N 50°33' W 000°36'1 2.1
2018-Apr-07 13:00N 50°32' W 000°38'1 2.2
2018-Apr-07 12:30N 50°31' W 000°39'1 1.0
2018-Apr-07 11:55N 50°31' W 000°38'512.7
2018-Apr-07 11:30N 50°33' W 000°30'713.9
2018-Apr-07 11:00N 50°33' W 000°20'714.6
2018-Apr-07 10:30N 50°33' W 000°08'815.5
2018-Apr-07 10:00N 50°33' E 000°04'816.1
2018-Apr-07 09:30N 50°35' E 000°16'816.6
2018-Apr-07 09:00N 50°37' E 000°29'816.6
2018-Apr-07 08:30N 50°41' E 000°41'816.6
2018-Apr-07 08:00N 50°45' E 000°52'816.1
2018-Apr-07 07:30N 50°50' E 001°03'815.8
2018-Apr-07 07:00N 50°55' E 001°12'815.4
2018-Apr-07 06:30N 51°01' E 001°21'714.7
2018-Apr-07 06:00N 51°05' E 001°30'713.7
2018-Apr-07 05:30N 51°09' E 001°39'713.7
2018-Apr-07 05:00N 51°14' E 001°47'713.7
2018-Apr-07 04:30N 51°19' E 001°53'714.1
2018-Apr-07 04:00N 51°25' E 001°60'815.2
2018-Apr-07 03:30N 51°21' E 002°10'815.0
2018-Apr-07 03:00N 51°22' E 002°22'815.4
2018-Apr-07 02:30N 51°23' E 002°35'  

Dump ship's entire track history